sensor_id;sensor_type;location;lat;lon;timestamp;pressure;altitude;pressure_sealevel;temperature;humidity
24336;BME280;33098;52.400;16.880;2023-10-31T00:01:52;99000.77;;;13.63;100.00
24336;BME280;33098;52.400;16.880;2023-10-31T00:04:18;98997.38;;;13.65;100.00
24336;BME280;33098;52.400;16.880;2023-10-31T00:06:45;98993.16;;;13.66;100.00
24336;BME280;33098;52.400;16.880;2023-10-31T00:09:11;98989.90;;;13.68;100.00
24336;BME280;33098;52.400;16.880;2023-10-31T00:11:38;98989.77;;;13.69;100.00
24336;BME280;33098;52.400;16.880;2023-10-31T00:14:04;98987.02;;;13.70;100.00
24336;BME280;33098;52.400;16.880;2023-10-31T00:16:30;98974.82;;;13.70;100.00
24336;BME280;33098;52.400;16.880;2023-10-31T00:18:57;98973.95;;;13.70;100.00
24336;BME280;33098;52.400;16.880;2023-10-31T00:21:23;98961.11;;;13.70;100.00
24336;BME280;33098;52.400;16.880;2023-10-31T00:23:50;98951.42;;;13.72;100.00
24336;BME280;33098;52.400;16.880;2023-10-31T00:26:16;98943.15;;;13.74;100.00
24336;BME280;33098;52.400;16.880;2023-10-31T00:28:47;98936.16;;;13.76;100.00
24336;BME280;33098;52.400;16.880;2023-10-31T00:31:14;98926.27;;;13.75;100.00
24336;BME280;33098;52.400;16.880;2023-10-31T00:33:40;98924.95;;;13.75;100.00
24336;BME280;33098;52.400;16.880;2023-10-31T00:36:07;98923.57;;;13.74;100.00
24336;BME280;33098;52.400;16.880;2023-10-31T00:38:34;98922.80;;;13.74;100.00
24336;BME280;33098;52.400;16.880;2023-10-31T00:41:00;98922.51;;;13.77;100.00
24336;BME280;33098;52.400;16.880;2023-10-31T00:43:27;98917.06;;;13.81;100.00
24336;BME280;33098;52.400;16.880;2023-10-31T00:45:53;98913.93;;;13.80;100.00
24336;BME280;33098;52.400;16.880;2023-10-31T00:48:20;98913.29;;;13.81;100.00
24336;BME280;33098;52.400;16.880;2023-10-31T00:50:46;98901.09;;;13.80;100.00
24336;BME280;33098;52.400;16.880;2023-10-31T00:53:13;98895.36;;;13.82;100.00
24336;BME280;33098;52.400;16.880;2023-10-31T00:55:40;98891.23;;;13.81;100.00
24336;BME280;33098;52.400;16.880;2023-10-31T00:58:07;98880.78;;;13.82;100.00
24336;BME280;33098;52.400;16.880;2023-10-31T01:00:34;98873.88;;;13.84;100.00
24336;BME280;33098;52.400;16.880;2023-10-31T01:03:00;98871.20;;;13.86;100.00
24336;BME280;33098;52.400;16.880;2023-10-31T01:05:27;98860.89;;;13.85;100.00
24336;BME280;33098;52.400;16.880;2023-10-31T01:07:54;98854.84;;;13.85;100.00
24336;BME280;33098;52.400;16.880;2023-10-31T01:10:21;98854.27;;;13.86;100.00
24336;BME280;33098;52.400;16.880;2023-10-31T01:12:47;98858.02;;;13.85;100.00
24336;BME280;33098;52.400;16.880;2023-10-31T01:15:14;98848.50;;;13.83;100.00
24336;BME280;33098;52.400;16.880;2023-10-31T01:17:40;98847.52;;;13.82;100.00
24336;BME280;33098;52.400;16.880;2023-10-31T01:20:07;98840.89;;;13.83;100.00
24336;BME280;33098;52.400;16.880;2023-10-31T01:22:34;98838.02;;;13.86;100.00
24336;BME280;33098;52.400;16.880;2023-10-31T01:25:00;98829.98;;;13.86;100.00
24336;BME280;33098;52.400;16.880;2023-10-31T01:27:27;98829.56;;;13.86;100.00
24336;BME280;33098;52.400;16.880;2023-10-31T01:29:53;98831.78;;;13.87;100.00
24336;BME280;33098;52.400;16.880;2023-10-31T01:32:19;98826.77;;;13.87;100.00
24336;BME280;33098;52.400;16.880;2023-10-31T01:34:46;98822.11;;;13.86;100.00
24336;BME280;33098;52.400;16.880;2023-10-31T01:37:12;98806.77;;;13.85;100.00
24336;BME280;33098;52.400;16.880;2023-10-31T01:39:40;98810.62;;;13.84;100.00
24336;BME280;33098;52.400;16.880;2023-10-31T01:42:07;98811.48;;;13.83;100.00
24336;BME280;33098;52.400;16.880;2023-10-31T01:44:33;98805.61;;;13.84;100.00
24336;BME280;33098;52.400;16.880;2023-10-31T01:47:00;98804.33;;;13.84;100.00
24336;BME280;33098;52.400;16.880;2023-10-31T01:49:26;98793.90;;;13.85;100.00
24336;BME280;33098;52.400;16.880;2023-10-31T01:51:52;98779.31;;;13.86;100.00
24336;BME280;33098;52.400;16.880;2023-10-31T01:54:19;98778.72;;;13.88;100.00
24336;BME280;33098;52.400;16.880;2023-10-31T01:56:46;98771.83;;;13.93;100.00
24336;BME280;33098;52.400;16.880;2023-10-31T01:59:14;98768.58;;;13.96;100.00
24336;BME280;33098;52.400;16.880;2023-10-31T02:01:41;98755.63;;;13.97;100.00
24336;BME280;33098;52.400;16.880;2023-10-31T02:04:07;98753.18;;;13.98;100.00
24336;BME280;33098;52.400;16.880;2023-10-31T02:06:34;98748.86;;;13.98;100.00
24336;BME280;33098;52.400;16.880;2023-10-31T02:09:00;98743.84;;;14.00;100.00
24336;BME280;33098;52.400;16.880;2023-10-31T02:11:27;98737.01;;;14.02;100.00
24336;BME280;33098;52.400;16.880;2023-10-31T02:13:53;98729.67;;;14.03;100.00
24336;BME280;33098;52.400;16.880;2023-10-31T02:16:20;98726.83;;;14.03;100.00
24336;BME280;33098;52.400;16.880;2023-10-31T02:18:46;98719.36;;;14.02;100.00
24336;BME280;33098;52.400;16.880;2023-10-31T02:21:12;98707.52;;;13.99;100.00
24336;BME280;33098;52.400;16.880;2023-10-31T02:23:39;98699.41;;;14.00;100.00
24336;BME280;33098;52.400;16.880;2023-10-31T02:26:05;98693.65;;;14.02;100.00
24336;BME280;33098;52.400;16.880;2023-10-31T02:28:32;98688.30;;;14.03;100.00
24336;BME280;33098;52.400;16.880;2023-10-31T02:30:58;98683.52;;;14.04;100.00
24336;BME280;33098;52.400;16.880;2023-10-31T02:33:25;98683.00;;;14.07;100.00
24336;BME280;33098;52.400;16.880;2023-10-31T02:35:51;98679.46;;;14.11;100.00
24336;BME280;33098;52.400;16.880;2023-10-31T02:38:18;98677.03;;;14.14;100.00
24336;BME280;33098;52.400;16.880;2023-10-31T02:40:44;98677.74;;;14.12;100.00
24336;BME280;33098;52.400;16.880;2023-10-31T02:43:11;98671.85;;;14.08;100.00
24336;BME280;33098;52.400;16.880;2023-10-31T02:45:37;98664.71;;;14.10;100.00
24336;BME280;33098;52.400;16.880;2023-10-31T02:48:04;98665.65;;;14.11;100.00
24336;BME280;33098;52.400;16.880;2023-10-31T02:50:30;98661.64;;;14.05;100.00
24336;BME280;33098;52.400;16.880;2023-10-31T02:52:57;98658.70;;;14.08;100.00
24336;BME280;33098;52.400;16.880;2023-10-31T02:55:23;98657.73;;;14.10;100.00
24336;BME280;33098;52.400;16.880;2023-10-31T02:57:50;98652.16;;;14.10;100.00
24336;BME280;33098;52.400;16.880;2023-10-31T03:00:17;98652.14;;;14.09;100.00
24336;BME280;33098;52.400;16.880;2023-10-31T03:02:43;98645.80;;;14.07;100.00
24336;BME280;33098;52.400;16.880;2023-10-31T03:05:10;98640.54;;;14.09;100.00
24336;BME280;33098;52.400;16.880;2023-10-31T03:07:36;98641.50;;;14.10;100.00
24336;BME280;33098;52.400;16.880;2023-10-31T03:10:03;98636.69;;;14.11;100.00
24336;BME280;33098;52.400;16.880;2023-10-31T03:12:30;98632.02;;;14.13;100.00
24336;BME280;33098;52.400;16.880;2023-10-31T03:14:56;98634.26;;;14.13;100.00
24336;BME280;33098;52.400;16.880;2023-10-31T03:17:22;98628.96;;;14.14;100.00
24336;BME280;33098;52.400;16.880;2023-10-31T03:19:52;98626.91;;;14.16;100.00
24336;BME280;33098;52.400;16.880;2023-10-31T03:22:18;98625.00;;;14.15;100.00
24336;BME280;33098;52.400;16.880;2023-10-31T03:24:44;98625.59;;;14.16;100.00
24336;BME280;33098;52.400;16.880;2023-10-31T03:27:11;98623.42;;;14.17;100.00
24336;BME280;33098;52.400;16.880;2023-10-31T03:29:37;98628.55;;;14.19;100.00
24336;BME280;33098;52.400;16.880;2023-10-31T03:32:04;98625.82;;;14.18;100.00
24336;BME280;33098;52.400;16.880;2023-10-31T03:34:31;98625.59;;;14.20;100.00
24336;BME280;33098;52.400;16.880;2023-10-31T03:36:57;98625.69;;;14.18;100.00
24336;BME280;33098;52.400;16.880;2023-10-31T03:39:24;98621.27;;;14.17;100.00
24336;BME280;33098;52.400;16.880;2023-10-31T03:41:50;98615.23;;;14.21;100.00
24336;BME280;33098;52.400;16.880;2023-10-31T03:44:17;98609.16;;;14.23;100.00
24336;BME280;33098;52.400;16.880;2023-10-31T03:46:43;98611.28;;;14.22;100.00
24336;BME280;33098;52.400;16.880;2023-10-31T03:49:10;98604.98;;;14.21;100.00
24336;BME280;33098;52.400;16.880;2023-10-31T03:51:36;98608.13;;;14.15;100.00
24336;BME280;33098;52.400;16.880;2023-10-31T03:54:02;98607.95;;;14.14;100.00
24336;BME280;33098;52.400;16.880;2023-10-31T03:56:29;98604.92;;;14.17;100.00
24336;BME280;33098;52.400;16.880;2023-10-31T03:58:55;98604.67;;;14.19;100.00
24336;BME280;33098;52.400;16.880;2023-10-31T04:01:22;98597.04;;;14.21;100.00
24336;BME280;33098;52.400;16.880;2023-10-31T04:03:48;98599.42;;;14.22;100.00
24336;BME280;33098;52.400;16.880;2023-10-31T04:06:14;98594.11;;;14.22;100.00
24336;BME280;33098;52.400;16.880;2023-10-31T04:08:42;98593.64;;;14.25;100.00
24336;BME280;33098;52.400;16.880;2023-10-31T04:11:09;98597.98;;;14.24;100.00
24336;BME280;33098;52.400;16.880;2023-10-31T04:13:35;98593.39;;;14.24;100.00
24336;BME280;33098;52.400;16.880;2023-10-31T04:16:02;98596.16;;;14.21;100.00
24336;BME280;33098;52.400;16.880;2023-10-31T04:18:28;98594.36;;;14.22;100.00
24336;BME280;33098;52.400;16.880;2023-10-31T04:20:54;98591.61;;;14.22;100.00
24336;BME280;33098;52.400;16.880;2023-10-31T04:23:21;98586.77;;;14.19;100.00
24336;BME280;33098;52.400;16.880;2023-10-31T04:25:47;98583.89;;;14.15;100.00
24336;BME280;33098;52.400;16.880;2023-10-31T04:28:13;98584.14;;;14.13;100.00
24336;BME280;33098;52.400;16.880;2023-10-31T04:30:41;98585.85;;;14.10;100.00
24336;BME280;33098;52.400;16.880;2023-10-31T04:33:07;98579.14;;;14.09;100.00
24336;BME280;33098;52.400;16.880;2023-10-31T04:35:33;98579.09;;;14.10;100.00
24336;BME280;33098;52.400;16.880;2023-10-31T04:38:00;98576.96;;;14.11;100.00
24336;BME280;33098;52.400;16.880;2023-10-31T04:40:26;98571.92;;;14.10;100.00
24336;BME280;33098;52.400;16.880;2023-10-31T04:42:54;98570.02;;;14.02;100.00
24336;BME280;33098;52.400;16.880;2023-10-31T04:45:20;98566.48;;;13.98;100.00
24336;BME280;33098;52.400;16.880;2023-10-31T04:47:47;98566.63;;;13.92;100.00
24336;BME280;33098;52.400;16.880;2023-10-31T04:50:13;98564.52;;;13.84;100.00
24336;BME280;33098;52.400;16.880;2023-10-31T04:52:40;98559.99;;;13.77;100.00
24336;BME280;33098;52.400;16.880;2023-10-31T04:55:06;98562.99;;;13.77;100.00
24336;BME280;33098;52.400;16.880;2023-10-31T04:57:33;98563.02;;;13.75;100.00
24336;BME280;33098;52.400;16.880;2023-10-31T04:59:59;98558.71;;;13.69;100.00
24336;BME280;33098;52.400;16.880;2023-10-31T05:02:25;98558.35;;;13.66;100.00
24336;BME280;33098;52.400;16.880;2023-10-31T05:04:52;98558.34;;;13.65;100.00
24336;BME280;33098;52.400;16.880;2023-10-31T05:07:18;98554.81;;;13.66;100.00
24336;BME280;33098;52.400;16.880;2023-10-31T05:09:45;98554.98;;;13.66;100.00
24336;BME280;33098;52.400;16.880;2023-10-31T05:12:11;98555.55;;;13.67;100.00
24336;BME280;33098;52.400;16.880;2023-10-31T05:14:38;98551.81;;;13.66;100.00
24336;BME280;33098;52.400;16.880;2023-10-31T05:17:05;98552.19;;;13.63;100.00
24336;BME280;33098;52.400;16.880;2023-10-31T05:19:32;98550.85;;;13.62;100.00
24336;BME280;33098;52.400;16.880;2023-10-31T05:21:58;98548.98;;;13.63;100.00
24336;BME280;33098;52.400;16.880;2023-10-31T05:24:25;98550.52;;;13.66;100.00
24336;BME280;33098;52.400;16.880;2023-10-31T05:26:51;98545.89;;;13.67;100.00
24336;BME280;33098;52.400;16.880;2023-10-31T05:29:17;98548.83;;;13.68;100.00
24336;BME280;33098;52.400;16.880;2023-10-31T05:31:44;98541.32;;;13.67;100.00
24336;BME280;33098;52.400;16.880;2023-10-31T05:34:10;98541.65;;;13.66;100.00
24336;BME280;33098;52.400;16.880;2023-10-31T05:36:37;98538.15;;;13.62;100.00
24336;BME280;33098;52.400;16.880;2023-10-31T05:39:03;98533.93;;;13.62;100.00
24336;BME280;33098;52.400;16.880;2023-10-31T05:41:33;98537.77;;;13.63;100.00
24336;BME280;33098;52.400;16.880;2023-10-31T05:43:59;98538.84;;;13.61;100.00
24336;BME280;33098;52.400;16.880;2023-10-31T05:46:25;98537.73;;;13.60;100.00
24336;BME280;33098;52.400;16.880;2023-10-31T05:48:52;98537.61;;;13.59;100.00
24336;BME280;33098;52.400;16.880;2023-10-31T05:51:19;98538.81;;;13.60;100.00
24336;BME280;33098;52.400;16.880;2023-10-31T05:53:46;98537.30;;;13.61;100.00
24336;BME280;33098;52.400;16.880;2023-10-31T05:56:13;98537.71;;;13.60;100.00
24336;BME280;33098;52.400;16.880;2023-10-31T05:58:41;98534.17;;;13.60;100.00
24336;BME280;33098;52.400;16.880;2023-10-31T06:01:07;98535.69;;;13.64;100.00
24336;BME280;33098;52.400;16.880;2023-10-31T06:03:34;98538.71;;;13.71;100.00
24336;BME280;33098;52.400;16.880;2023-10-31T06:06:00;98543.61;;;13.79;100.00
24336;BME280;33098;52.400;16.880;2023-10-31T06:08:27;98548.32;;;13.81;100.00
24336;BME280;33098;52.400;16.880;2023-10-31T06:10:55;98550.30;;;13.84;100.00
24336;BME280;33098;52.400;16.880;2023-10-31T06:13:22;98546.61;;;13.94;100.00
24336;BME280;33098;52.400;16.880;2023-10-31T06:15:48;98545.02;;;13.98;100.00
24336;BME280;33098;52.400;16.880;2023-10-31T06:18:14;98552.61;;;13.97;100.00
24336;BME280;33098;52.400;16.880;2023-10-31T06:20:41;98557.73;;;13.95;100.00
24336;BME280;33098;52.400;16.880;2023-10-31T06:23:08;98556.54;;;13.99;100.00
24336;BME280;33098;52.400;16.880;2023-10-31T06:25:34;98549.03;;;14.02;100.00
24336;BME280;33098;52.400;16.880;2023-10-31T06:28:01;98552.27;;;14.07;100.00
24336;BME280;33098;52.400;16.880;2023-10-31T06:30:27;98547.73;;;14.09;100.00
24336;BME280;33098;52.400;16.880;2023-10-31T06:32:54;98544.27;;;14.07;100.00
24336;BME280;33098;52.400;16.880;2023-10-31T06:35:20;98550.58;;;14.05;100.00
24336;BME280;33098;52.400;16.880;2023-10-31T06:37:47;98550.78;;;14.11;100.00
24336;BME280;33098;52.400;16.880;2023-10-31T06:40:14;98552.07;;;14.13;100.00
24336;BME280;33098;52.400;16.880;2023-10-31T06:42:41;98549.91;;;14.15;100.00
24336;BME280;33098;52.400;16.880;2023-10-31T06:45:07;98550.54;;;14.14;100.00
24336;BME280;33098;52.400;16.880;2023-10-31T06:47:34;98548.77;;;14.11;100.00
24336;BME280;33098;52.400;16.880;2023-10-31T06:50:00;98549.50;;;14.06;100.00
24336;BME280;33098;52.400;16.880;2023-10-31T06:52:27;98548.36;;;14.04;100.00
24336;BME280;33098;52.400;16.880;2023-10-31T06:54:53;98551.53;;;14.07;100.00
24336;BME280;33098;52.400;16.880;2023-10-31T06:57:20;98548.08;;;14.02;100.00
24336;BME280;33098;52.400;16.880;2023-10-31T06:59:46;98546.86;;;13.98;100.00
24336;BME280;33098;52.400;16.880;2023-10-31T07:02:13;98543.60;;;13.98;100.00
24336;BME280;33098;52.400;16.880;2023-10-31T07:04:40;98551.27;;;13.99;100.00
24336;BME280;33098;52.400;16.880;2023-10-31T07:07:06;98549.92;;;14.00;100.00
24336;BME280;33098;52.400;16.880;2023-10-31T07:09:33;98552.40;;;14.00;100.00
24336;BME280;33098;52.400;16.880;2023-10-31T07:11:59;98551.39;;;13.98;100.00
24336;BME280;33098;52.400;16.880;2023-10-31T07:14:25;98555.23;;;13.96;100.00
24336;BME280;33098;52.400;16.880;2023-10-31T07:16:52;98558.55;;;13.91;100.00
24336;BME280;33098;52.400;16.880;2023-10-31T07:19:18;98559.34;;;13.90;100.00
24336;BME280;33098;52.400;16.880;2023-10-31T07:21:45;98559.86;;;13.90;100.00
24336;BME280;33098;52.400;16.880;2023-10-31T07:24:11;98566.25;;;13.90;100.00
24336;BME280;33098;52.400;16.880;2023-10-31T07:26:38;98574.47;;;13.90;100.00
24336;BME280;33098;52.400;16.880;2023-10-31T07:29:04;98576.07;;;13.94;100.00
24336;BME280;33098;52.400;16.880;2023-10-31T07:31:31;98579.20;;;13.91;100.00
24336;BME280;33098;52.400;16.880;2023-10-31T07:33:57;98585.30;;;13.87;100.00
24336;BME280;33098;52.400;16.880;2023-10-31T07:36:24;98588.53;;;13.89;100.00
24336;BME280;33098;52.400;16.880;2023-10-31T07:38:51;98589.50;;;13.87;100.00
24336;BME280;33098;52.400;16.880;2023-10-31T07:41:17;98595.55;;;13.87;100.00
24336;BME280;33098;52.400;16.880;2023-10-31T07:43:44;98599.30;;;13.82;100.00
24336;BME280;33098;52.400;16.880;2023-10-31T07:46:11;98601.23;;;13.74;100.00
24336;BME280;33098;52.400;16.880;2023-10-31T07:48:37;98606.98;;;13.74;100.00
24336;BME280;33098;52.400;16.880;2023-10-31T07:51:04;98615.38;;;13.74;100.00
24336;BME280;33098;52.400;16.880;2023-10-31T07:53:31;98619.27;;;13.68;100.00
24336;BME280;33098;52.400;16.880;2023-10-31T07:55:57;98621.73;;;13.67;100.00
24336;BME280;33098;52.400;16.880;2023-10-31T07:58:24;98625.20;;;13.66;100.00
24336;BME280;33098;52.400;16.880;2023-10-31T08:00:50;98626.18;;;13.60;100.00
24336;BME280;33098;52.400;16.880;2023-10-31T08:03:16;98629.23;;;13.58;100.00
24336;BME280;33098;52.400;16.880;2023-10-31T08:05:43;98629.85;;;13.51;100.00
24336;BME280;33098;52.400;16.880;2023-10-31T08:08:09;98629.38;;;13.49;100.00
24336;BME280;33098;52.400;16.880;2023-10-31T08:10:36;98625.14;;;13.47;100.00
24336;BME280;33098;52.400;16.880;2023-10-31T08:13:02;98625.23;;;13.48;100.00
24336;BME280;33098;52.400;16.880;2023-10-31T08:15:28;98627.08;;;13.50;100.00
24336;BME280;33098;52.400;16.880;2023-10-31T08:17:55;98632.02;;;13.50;100.00
24336;BME280;33098;52.400;16.880;2023-10-31T08:20:21;98633.70;;;13.50;100.00
24336;BME280;33098;52.400;16.880;2023-10-31T08:22:48;98641.16;;;13.51;100.00
24336;BME280;33098;52.400;16.880;2023-10-31T08:25:14;98648.06;;;13.51;100.00
24336;BME280;33098;52.400;16.880;2023-10-31T08:27:41;98652.48;;;13.52;100.00
24336;BME280;33098;52.400;16.880;2023-10-31T08:30:07;98658.05;;;13.53;100.00
24336;BME280;33098;52.400;16.880;2023-10-31T08:32:34;98659.12;;;13.50;100.00
24336;BME280;33098;52.400;16.880;2023-10-31T08:35:00;98663.73;;;13.48;100.00
24336;BME280;33098;52.400;16.880;2023-10-31T08:37:27;98658.23;;;13.46;100.00
24336;BME280;33098;52.400;16.880;2023-10-31T08:39:54;98657.25;;;13.47;100.00
24336;BME280;33098;52.400;16.880;2023-10-31T08:42:20;98658.77;;;13.50;100.00
24336;BME280;33098;52.400;16.880;2023-10-31T08:44:47;98655.80;;;13.48;100.00
24336;BME280;33098;52.400;16.880;2023-10-31T08:47:13;98653.83;;;13.49;100.00
24336;BME280;33098;52.400;16.880;2023-10-31T08:49:39;98656.13;;;13.46;100.00
24336;BME280;33098;52.400;16.880;2023-10-31T08:52:07;98659.88;;;13.43;100.00
24336;BME280;33098;52.400;16.880;2023-10-31T08:54:33;98660.80;;;13.44;100.00
24336;BME280;33098;52.400;16.880;2023-10-31T08:57:00;98660.81;;;13.42;100.00
24336;BME280;33098;52.400;16.880;2023-10-31T08:59:26;98675.15;;;13.45;100.00
24336;BME280;33098;52.400;16.880;2023-10-31T09:01:53;98679.89;;;13.45;100.00
24336;BME280;33098;52.400;16.880;2023-10-31T09:04:19;98679.19;;;13.45;100.00
24336;BME280;33098;52.400;16.880;2023-10-31T09:06:45;98686.48;;;13.42;100.00
24336;BME280;33098;52.400;16.880;2023-10-31T09:09:12;98696.80;;;13.41;100.00
24336;BME280;33098;52.400;16.880;2023-10-31T09:11:39;98703.05;;;13.42;100.00
24336;BME280;33098;52.400;16.880;2023-10-31T09:14:06;98705.38;;;13.39;100.00
24336;BME280;33098;52.400;16.880;2023-10-31T09:16:32;98711.46;;;13.36;100.00
24336;BME280;33098;52.400;16.880;2023-10-31T09:18:59;98714.98;;;13.33;100.00
24336;BME280;33098;52.400;16.880;2023-10-31T09:21:25;98717.24;;;13.35;100.00
24336;BME280;33098;52.400;16.880;2023-10-31T09:23:52;98713.89;;;13.39;100.00
24336;BME280;33098;52.400;16.880;2023-10-31T09:26:18;98710.33;;;13.40;100.00
24336;BME280;33098;52.400;16.880;2023-10-31T09:28:44;98712.58;;;13.40;100.00
24336;BME280;33098;52.400;16.880;2023-10-31T09:31:16;98710.82;;;13.43;100.00
24336;BME280;33098;52.400;16.880;2023-10-31T09:33:43;98717.39;;;13.43;100.00
24336;BME280;33098;52.400;16.880;2023-10-31T09:36:10;98724.02;;;13.43;100.00
24336;BME280;33098;52.400;16.880;2023-10-31T09:38:36;98732.05;;;13.47;100.00
24336;BME280;33098;52.400;16.880;2023-10-31T09:41:03;98736.91;;;13.47;100.00
24336;BME280;33098;52.400;16.880;2023-10-31T09:43:29;98741.66;;;13.46;100.00
24336;BME280;33098;52.400;16.880;2023-10-31T09:45:57;98751.20;;;13.48;100.00
24336;BME280;33098;52.400;16.880;2023-10-31T09:48:23;98764.27;;;13.49;100.00
24336;BME280;33098;52.400;16.880;2023-10-31T09:50:50;98773.33;;;13.48;100.00
24336;BME280;33098;52.400;16.880;2023-10-31T09:53:16;98777.27;;;13.48;100.00
24336;BME280;33098;52.400;16.880;2023-10-31T09:55:43;98777.18;;;13.50;100.00
24336;BME280;33098;52.400;16.880;2023-10-31T09:58:11;98782.11;;;13.47;100.00
24336;BME280;33098;52.400;16.880;2023-10-31T10:00:37;98787.41;;;13.45;100.00
24336;BME280;33098;52.400;16.880;2023-10-31T10:03:06;98783.02;;;13.43;100.00
24336;BME280;33098;52.400;16.880;2023-10-31T10:05:36;98784.02;;;13.38;100.00
24336;BME280;33098;52.400;16.880;2023-10-31T10:08:03;98792.21;;;13.37;100.00
24336;BME280;33098;52.400;16.880;2023-10-31T10:10:30;98790.62;;;13.37;100.00
24336;BME280;33098;52.400;16.880;2023-10-31T10:12:57;98800.51;;;13.34;100.00
24336;BME280;33098;52.400;16.880;2023-10-31T10:15:24;98811.65;;;13.31;100.00
24336;BME280;33098;52.400;16.880;2023-10-31T10:17:52;98815.92;;;13.32;100.00
24336;BME280;33098;52.400;16.880;2023-10-31T10:20:19;98815.55;;;13.35;100.00
24336;BME280;33098;52.400;16.880;2023-10-31T10:22:45;98810.58;;;13.38;100.00
24336;BME280;33098;52.400;16.880;2023-10-31T10:25:13;98805.88;;;13.44;100.00
24336;BME280;33098;52.400;16.880;2023-10-31T10:27:42;98806.95;;;13.45;100.00
24336;BME280;33098;52.400;16.880;2023-10-31T10:30:08;98810.85;;;13.47;100.00
24336;BME280;33098;52.400;16.880;2023-10-31T10:32:35;98806.52;;;13.46;100.00
24336;BME280;33098;52.400;16.880;2023-10-31T10:35:01;98812.04;;;13.44;100.00
24336;BME280;33098;52.400;16.880;2023-10-31T10:37:28;98810.73;;;13.45;100.00
24336;BME280;33098;52.400;16.880;2023-10-31T10:39:56;98816.16;;;13.43;100.00
24336;BME280;33098;52.400;16.880;2023-10-31T10:42:30;98823.85;;;13.41;100.00
24336;BME280;33098;52.400;16.880;2023-10-31T10:45:01;98830.92;;;13.39;100.00
24336;BME280;33098;52.400;16.880;2023-10-31T10:47:29;98837.77;;;13.41;100.00
24336;BME280;33098;52.400;16.880;2023-10-31T10:49:59;98837.83;;;13.42;100.00
24336;BME280;33098;52.400;16.880;2023-10-31T10:52:38;98839.84;;;13.41;100.00
24336;BME280;33098;52.400;16.880;2023-10-31T10:55:12;98839.89;;;13.35;100.00
24336;BME280;33098;52.400;16.880;2023-10-31T10:57:48;98838.17;;;13.31;100.00
24336;BME280;33098;52.400;16.880;2023-10-31T11:00:17;98842.91;;;13.27;100.00
24336;BME280;33098;52.400;16.880;2023-10-31T11:02:46;98851.06;;;13.22;100.00
24336;BME280;33098;52.400;16.880;2023-10-31T11:05:13;98856.13;;;13.14;100.00
24336;BME280;33098;52.400;16.880;2023-10-31T11:07:39;98860.81;;;13.12;100.00
24336;BME280;33098;52.400;16.880;2023-10-31T11:10:07;98867.64;;;13.08;100.00
24336;BME280;33098;52.400;16.880;2023-10-31T11:12:34;98870.41;;;13.07;100.00
24336;BME280;33098;52.400;16.880;2023-10-31T11:15:02;98873.34;;;13.11;100.00
24336;BME280;33098;52.400;16.880;2023-10-31T11:19:56;98885.84;;;13.19;100.00
24336;BME280;33098;52.400;16.880;2023-10-31T11:22:23;98887.76;;;13.18;100.00
24336;BME280;33098;52.400;16.880;2023-10-31T11:24:49;98888.44;;;13.15;100.00
24336;BME280;33098;52.400;16.880;2023-10-31T11:27:17;98886.97;;;13.09;100.00
24336;BME280;33098;52.400;16.880;2023-10-31T11:29:44;98895.26;;;13.02;100.00
24336;BME280;33098;52.400;16.880;2023-10-31T11:32:10;98902.97;;;12.97;100.00
24336;BME280;33098;52.400;16.880;2023-10-31T11:34:38;98906.66;;;12.89;100.00
24336;BME280;33098;52.400;16.880;2023-10-31T11:37:24;98911.05;;;12.86;100.00
24336;BME280;33098;52.400;16.880;2023-10-31T11:42:41;98904.34;;;12.87;100.00
24336;BME280;33098;52.400;16.880;2023-10-31T11:45:08;98912.58;;;12.87;100.00
24336;BME280;33098;52.400;16.880;2023-10-31T11:47:50;98917.35;;;12.87;100.00
24336;BME280;33098;52.400;16.880;2023-10-31T11:50:17;98916.71;;;12.91;100.00
24336;BME280;33098;52.400;16.880;2023-10-31T11:52:43;98918.27;;;12.92;100.00
24336;BME280;33098;52.400;16.880;2023-10-31T11:55:11;98917.77;;;12.95;100.00
24336;BME280;33098;52.400;16.880;2023-10-31T11:57:40;98925.22;;;12.98;100.00
24336;BME280;33098;52.400;16.880;2023-10-31T12:00:07;98933.25;;;13.03;100.00
24336;BME280;33098;52.400;16.880;2023-10-31T12:03:01;98939.16;;;13.03;100.00
24336;BME280;33098;52.400;16.880;2023-10-31T12:05:28;98946.29;;;12.99;100.00
24336;BME280;33098;52.400;16.880;2023-10-31T12:07:55;98951.46;;;12.98;100.00
24336;BME280;33098;52.400;16.880;2023-10-31T12:10:25;98951.01;;;12.97;100.00
24336;BME280;33098;52.400;16.880;2023-10-31T12:12:53;98957.50;;;13.01;100.00
24336;BME280;33098;52.400;16.880;2023-10-31T12:15:19;98960.72;;;13.02;100.00
24336;BME280;33098;52.400;16.880;2023-10-31T12:17:46;98951.95;;;13.03;100.00
24336;BME280;33098;52.400;16.880;2023-10-31T12:20:12;98953.60;;;13.15;100.00
24336;BME280;33098;52.400;16.880;2023-10-31T12:22:39;98956.02;;;13.23;100.00
24336;BME280;33098;52.400;16.880;2023-10-31T12:25:06;98952.79;;;13.24;100.00
24336;BME280;33098;52.400;16.880;2023-10-31T12:27:46;98941.09;;;13.25;100.00
24336;BME280;33098;52.400;16.880;2023-10-31T12:30:13;98939.52;;;13.24;100.00
24336;BME280;33098;52.400;16.880;2023-10-31T12:32:40;98943.26;;;13.26;100.00
24336;BME280;33098;52.400;16.880;2023-10-31T12:35:11;98948.75;;;13.23;100.00
24336;BME280;33098;52.400;16.880;2023-10-31T12:37:48;98953.83;;;13.24;100.00
24336;BME280;33098;52.400;16.880;2023-10-31T12:40:17;98955.91;;;13.15;100.00
24336;BME280;33098;52.400;16.880;2023-10-31T12:42:44;98963.10;;;13.11;100.00
24336;BME280;33098;52.400;16.880;2023-10-31T12:45:11;98970.70;;;13.15;100.00